Time;durP1;ratioP1;P1;durP2;ratioP2;P2;SDS_P1;SDS_P2;PMS_P1;PMS_P2;Temp;Humidity;BMP_temperature;BMP_pressure;BME280_temperature;BME280_humidity;BME280_pressure;Samples;Min_cycle;Max_cycle;Signal;HPM_P1;HPM_P2
2023/03/19 00:02:06;;;;;;;1.15;0.90;;;;;;;13.23;64.76;101020.09;5124578;28;20210;-64
2023/03/19 00:04:45;;;;;;;2.42;1.10;;;;;;;13.23;64.43;101025.50;5120493;28;20089;-64
2023/03/19 00:07:12;;;;;;;4.03;1.20;;;;;;;13.22;64.44;101027.38;5122839;28;20044;-64
2023/03/19 00:09:42;;;;;;;2.72;1.10;;;;;;;13.21;64.77;101033.00;5119830;28;20087;-64
2023/03/19 00:12:10;;;;;;;2.25;1.15;;;;;;;13.18;64.55;101020.78;5122133;28;20071;-64
2023/03/19 00:14:39;;;;;;;3.17;1.00;;;;;;;13.18;64.77;101022.69;5122669;28;20039;-64
2023/03/19 00:17:07;;;;;;;2.75;1.15;;;;;;;13.18;64.54;101022.69;5123946;28;20496;-65
2023/03/19 00:19:35;;;;;;;3.05;1.02;;;;;;;13.16;64.61;101014.81;5117312;28;20046;-63
2023/03/19 00:22:03;;;;;;;1.75;0.77;;;;;;;13.16;64.67;101024.75;5122058;28;20050;-64
2023/03/19 00:24:31;;;;;;;2.08;0.98;;;;;;;13.14;64.97;101027.69;5123822;28;20468;-63
2023/03/19 00:27:02;;;;;;;3.05;1.30;;;;;;;13.13;64.85;101026.03;5118837;28;20055;-64
2023/03/19 00:29:30;;;;;;;2.20;1.00;;;;;;;13.12;64.67;101035.19;5119417;28;20082;-64
2023/03/19 00:31:58;;;;;;;2.25;1.30;;;;;;;13.12;64.61;101039.78;5105084;28;20078;-64
2023/03/19 00:34:26;;;;;;;2.13;1.08;;;;;;;13.12;64.57;101035.19;5119980;28;20131;-64
2023/03/19 00:36:55;;;;;;;1.35;1.00;;;;;;;13.10;64.80;101034.59;5119773;28;20131;-64
2023/03/19 00:39:22;;;;;;;1.10;0.85;;;;;;;13.10;64.97;101036.47;5117978;28;20093;-64
2023/03/19 00:41:50;;;;;;;4.07;1.40;;;;;;;13.09;65.03;101037.53;5107695;28;20250;-64
2023/03/19 00:44:19;;;;;;;2.63;1.35;;;;;;;13.05;65.23;101031.78;5123561;28;20746;-64
2023/03/19 00:46:47;;;;;;;1.88;1.17;;;;;;;13.07;64.76;101028.84;5111421;28;20048;-63
2023/03/19 00:49:15;;;;;;;2.38;1.17;;;;;;;13.08;64.95;101046.69;5121009;28;20459;-65
2023/03/19 00:51:43;;;;;;;4.88;1.20;;;;;;;13.08;64.88;101044.00;5123476;28;20039;-64
2023/03/19 00:54:12;;;;;;;1.90;1.05;;;;;;;13.06;64.71;101041.53;5121391;28;20397;-63
2023/03/19 00:56:39;;;;;;;3.55;1.15;;;;;;;13.06;64.92;101043.41;5119197;27;20122;-63
2023/03/19 00:59:07;;;;;;;1.60;1.13;;;;;;;13.06;65.05;101043.41;5123174;28;20085;-64
2023/03/19 01:01:36;;;;;;;2.58;1.10;;;;;;;13.04;64.85;101040.94;5118393;28;20504;-64
2023/03/19 01:04:05;;;;;;;2.10;1.08;;;;;;;13.04;65.24;101046.34;5117579;28;20131;-64
2023/03/19 01:06:32;;;;;;;2.67;1.08;;;;;;;13.03;65.00;101042.00;5120884;28;20052;-64
2023/03/19 01:09:00;;;;;;;3.25;1.38;;;;;;;13.02;65.23;101043.88;5107611;28;20082;-64
2023/03/19 01:11:28;;;;;;;1.75;1.10;;;;;;;13.01;65.31;101046.81;5112278;28;20054;-64
2023/03/19 01:13:56;;;;;;;1.90;1.27;;;;;;;13.00;64.98;101043.28;5117374;28;20052;-64
2023/03/19 01:16:24;;;;;;;3.13;1.50;;;;;;;13.00;65.27;101043.28;5120203;28;20107;-64
2023/03/19 01:18:53;;;;;;;2.35;1.30;;;;;;;13.00;64.90;101035.19;5120201;28;20538;-64
2023/03/19 01:21:21;;;;;;;3.05;1.48;;;;;;;13.00;65.29;101045.16;5116562;28;20052;-64
2023/03/19 01:23:50;;;;;;;1.90;1.20;;;;;;;12.99;64.99;101040.81;5114987;28;20047;-65
2023/03/19 01:26:18;;;;;;;2.50;1.50;;;;;;;12.99;64.90;101046.22;5119087;28;20048;-64
2023/03/19 01:28:46;;;;;;;2.15;1.42;;;;;;;12.98;64.85;101044.56;5118639;28;20044;-64
2023/03/19 01:31:14;;;;;;;3.47;1.50;;;;;;;12.96;65.18;101041.28;5113500;28;20055;-64
2023/03/19 01:33:42;;;;;;;1.92;1.33;;;;;;;12.95;64.94;101042.34;5120469;27;20043;-65
2023/03/19 01:36:11;;;;;;;2.85;1.27;;;;;;;12.93;65.35;101041.75;5119852;28;20055;-63
2023/03/19 01:38:39;;;;;;;1.75;1.25;;;;;;;12.92;64.94;101037.41;5115937;28;20051;-65
2023/03/19 01:41:07;;;;;;;2.92;1.60;;;;;;;12.91;65.16;101036.59;5109320;28;20405;-63
2023/03/19 01:43:35;;;;;;;1.70;1.38;;;;;;;12.91;65.43;101033.88;5112677;28;20036;-65
2023/03/19 01:46:07;;;;;;;5.28;2.22;;;;;;;12.90;65.18;101037.63;5117472;28;20242;-64
2023/03/19 01:48:39;;;;;;;1.60;1.25;;;;;;;12.89;65.07;101030.59;5114481;28;20040;-63
2023/03/19 01:51:09;;;;;;;2.45;1.50;;;;;;;12.87;65.20;101027.31;5106027;28;20052;-63
2023/03/19 01:53:42;;;;;;;2.22;1.30;;;;;;;12.87;65.55;101032.72;5117651;28;20073;-63
2023/03/19 01:56:15;;;;;;;3.03;1.42;;;;;;;12.85;65.03;101034.81;5120965;28;20044;-63
2023/03/19 01:58:45;;;;;;;2.17;1.48;;;;;;;12.85;65.61;101031.28;5120956;28;20047;-64
2023/03/19 02:01:14;;;;;;;2.90;1.35;;;;;;;12.84;65.14;101035.88;5117341;28;20075;-64
2023/03/19 02:03:42;;;;;;;5.15;2.00;;;;;;;12.82;65.17;101027.19;5119658;28;20075;-63
2023/03/19 02:06:12;;;;;;;2.08;1.40;;;;;;;12.82;65.38;101034.47;5118627;28;20069;-64
2023/03/19 02:08:42;;;;;;;3.05;1.50;;;;;;;12.82;65.43;101034.47;5122416;28;20058;-64
2023/03/19 02:11:10;;;;;;;2.65;1.58;;;;;;;12.81;65.31;101035.50;5124327;28;20079;-64
2023/03/19 02:13:38;;;;;;;4.88;1.77;;;;;;;12.80;65.35;101039.25;5122121;28;20075;-65
2023/03/19 02:16:07;;;;;;;2.63;1.67;;;;;;;12.73;65.53;101027.75;5124054;28;20130;-65
2023/03/19 02:18:35;;;;;;;2.58;1.52;;;;;;;12.79;65.62;101043.00;5122937;28;20071;-63
2023/03/19 02:21:07;;;;;;;2.72;1.40;;;;;;;12.79;65.66;101037.63;5116343;28;20214;-63
2023/03/19 02:23:41;;;;;;;3.08;1.40;;;;;;;12.77;65.58;101035.16;5125103;28;20054;-63
2023/03/19 02:26:12;;;;;;;3.22;1.60;;;;;;;12.77;65.46;101032.44;5121353;28;20054;-64
2023/03/19 02:28:43;;;;;;;3.75;1.75;;;;;;;12.76;65.25;101033.50;5122275;28;20236;-64
2023/03/19 02:31:12;;;;;;;3.00;1.60;;;;;;;12.76;65.69;101032.69;5121998;28;20075;-63
2023/03/19 02:33:40;;;;;;;3.75;1.85;;;;;;;12.75;65.50;101036.44;5113558;28;20094;-64
2023/03/19 02:36:12;;;;;;;2.15;1.30;;;;;;;12.75;65.40;101039.13;5112518;28;20081;-64
2023/03/19 02:38:42;;;;;;;3.17;1.90;;;;;;;12.74;65.66;101035.63;5121319;27;20090;-64
2023/03/19 02:41:11;;;;;;;3.30;1.73;;;;;;;12.74;65.64;101032.09;5111418;28;20052;-64
2023/03/19 02:43:41;;;;;;;3.75;1.80;;;;;;;12.73;65.52;101036.66;5124132;28;20081;-65
2023/03/19 02:46:11;;;;;;;3.40;1.55;;;;;;;12.73;65.50;101038.53;5114065;28;20048;-64
2023/03/19 02:48:40;;;;;;;4.35;1.88;;;;;;;12.71;65.72;101036.91;5125009;28;20090;-64
2023/03/19 02:51:08;;;;;;;3.20;1.60;;;;;;;12.71;65.51;101047.69;5112786;27;20048;-64
2023/03/19 02:53:36;;;;;;;4.07;1.95;;;;;;;12.72;66.05;101053.91;5123270;28;20071;-63
2023/03/19 02:56:04;;;;;;;3.80;1.85;;;;;;;12.71;65.73;101044.16;5110322;28;20946;-64
2023/03/19 02:58:33;;;;;;;4.03;1.70;;;;;;;12.70;65.56;101047.91;5122088;28;20043;-64
2023/03/19 03:01:00;;;;;;;3.35;1.58;;;;;;;12.71;66.04;101055.78;5114550;28;20043;-64
2023/03/19 03:03:29;;;;;;;4.50;2.55;;;;;;;12.69;66.06;101049.78;5116589;27;20040;-64
2023/03/19 03:05:57;;;;;;;3.80;2.05;;;;;;;12.67;66.08;101049.19;5125076;28;20165;-64
2023/03/19 03:08:25;;;;;;;3.28;1.83;;;;;;;12.68;65.88;101050.84;5115754;27;20086;-63
2023/03/19 03:10:52;;;;;;;2.83;1.63;;;;;;;12.68;66.10;101050.03;5125843;28;20058;-64
2023/03/19 03:13:20;;;;;;;3.70;1.67;;;;;;;12.67;65.79;101046.50;5120252;28;20103;-63
2023/03/19 03:15:50;;;;;;;2.80;1.73;;;;;;;12.66;65.92;101050.25;5107444;28;20127;-65
2023/03/19 03:18:18;;;;;;;4.20;2.25;;;;;;;12.66;65.88;101046.72;5118476;28;20054;-65
2023/03/19 03:20:46;;;;;;;6.00;2.22;;;;;;;12.64;65.86;101052.34;5122103;28;20115;-64
2023/03/19 03:23:14;;;;;;;2.78;1.60;;;;;;;12.64;65.67;101054.22;5123670;28;20048;-64
2023/03/19 03:25:41;;;;;;;4.25;2.20;;;;;;;12.63;66.09;101055.28;5124558;28;20126;-64
2023/03/19 03:28:09;;;;;;;3.80;1.83;;;;;;;12.62;65.72;101054.47;5118760;28;20066;-64
2023/03/19 03:30:37;;;;;;;3.33;2.50;;;;;;;12.62;66.03;101059.03;5115395;28;20089;-64
2023/03/19 03:33:06;;;;;;;2.83;1.63;;;;;;;12.60;66.17;101056.56;5124313;28;20059;-64
2023/03/19 03:35:34;;;;;;;2.15;1.73;;;;;;;12.61;66.22;101057.38;5124411;28;20053;-65
2023/03/19 03:38:02;;;;;;;2.47;1.85;;;;;;;12.58;66.04;101058.66;5124334;28;20272;-65
2023/03/19 03:40:30;;;;;;;3.55;1.80;;;;;;;12.59;66.22;101060.31;5123804;28;20158;-64
2023/03/19 03:42:57;;;;;;;2.35;1.77;;;;;;;12.58;66.09;101058.66;5116770;28;20058;-64
2023/03/19 03:45:26;;;;;;;3.15;1.95;;;;;;;12.58;66.27;101057.84;5121157;28;20075;-64
2023/03/19 03:47:53;;;;;;;3.47;1.90;;;;;;;12.57;66.10;101069.69;5123852;28;20056;-64
2023/03/19 03:50:22;;;;;;;2.30;1.70;;;;;;;12.55;65.86;101069.91;5119564;27;20074;-64
2023/03/19 03:52:50;;;;;;;4.18;2.20;;;;;;;12.55;65.96;101063.69;5120968;28;20123;-64
2023/03/19 03:55:18;;;;;;;4.35;2.00;;;;;;;12.54;66.14;101070.97;5124925;28;20040;-64
2023/03/19 03:57:45;;;;;;;2.35;1.95;;;;;;;12.54;66.09;101076.34;5118304;27;20485;-64
2023/03/19 04:00:14;;;;;;;2.65;1.55;;;;;;;12.53;66.23;101085.50;5124033;28;20061;-64
2023/03/19 04:02:42;;;;;;;4.43;2.63;;;;;;;12.52;66.05;101083.84;5122802;28;20047;-64
2023/03/19 04:05:09;;;;;;;2.50;1.55;;;;;;;12.52;66.45;101083.03;5114367;28;20046;-64
2023/03/19 04:07:39;;;;;;;3.47;2.03;;;;;;;12.51;66.47;101082.19;5123755;28;20055;-63
2023/03/19 04:10:09;;;;;;;3.08;2.03;;;;;;;12.51;65.84;101082.19;5123729;28;20118;-63
2023/03/19 04:12:38;;;;;;;2.25;1.40;;;;;;;12.50;66.24;101077.03;5112018;27;20123;-63
2023/03/19 04:15:09;;;;;;;3.20;1.67;;;;;;;12.50;66.03;101066.25;5123203;28;20048;-63
2023/03/19 04:17:37;;;;;;;2.92;2.03;;;;;;;12.50;66.45;101079.75;5117345;28;20044;-65
2023/03/19 04:20:06;;;;;;;5.50;2.50;;;;;;;12.49;66.32;101070.00;5121274;28;20081;-63
2023/03/19 04:22:34;;;;;;;3.83;1.73;;;;;;;12.48;66.13;101071.88;5114606;28;20312;-64
2023/03/19 04:25:03;;;;;;;5.18;2.00;;;;;;;12.47;66.12;101072.09;5117962;28;20702;-64
2023/03/19 04:27:31;;;;;;;2.50;1.90;;;;;;;12.46;66.15;101078.53;5124687;28;20070;-63
2023/03/19 04:30:00;;;;;;;4.43;1.80;;;;;;;12.47;66.15;101080.19;5116326;28;20044;-63
2023/03/19 04:32:27;;;;;;;3.25;2.30;;;;;;;12.45;66.56;101076.91;5120833;28;20051;-63
2023/03/19 04:34:57;;;;;;;4.28;2.55;;;;;;;12.45;66.37;101082.28;5115406;28;20137;-63
2023/03/19 04:37:25;;;;;;;5.32;2.28;;;;;;;12.44;66.41;101081.47;5123599;28;20055;-64
2023/03/19 04:39:54;;;;;;;4.53;2.40;;;;;;;12.36;66.48;101068.31;5123668;27;20071;-64
2023/03/19 04:42:23;;;;;;;3.65;2.38;;;;;;;12.35;66.38;101062.09;5124177;28;20061;-63
2023/03/19 04:44:52;;;;;;;4.13;2.30;;;;;;;12.42;66.11;101078.19;5124108;28;20134;-64
2023/03/19 04:47:20;;;;;;;5.45;2.28;;;;;;;12.41;66.25;101076.53;5122675;28;20746;-63
2023/03/19 04:49:47;;;;;;;4.10;2.10;;;;;;;12.39;66.10;101079.47;5122919;27;20298;-64
2023/03/19 04:52:15;;;;;;;2.70;2.03;;;;;;;12.39;66.35;101082.16;5117922;27;20124;-63
2023/03/19 04:54:43;;;;;;;6.28;2.55;;;;;;;12.38;66.08;101088.59;5111266;28;20438;-63
2023/03/19 04:57:11;;;;;;;7.47;2.20;;;;;;;12.37;66.05;101088.81;5122660;28;20428;-63
2023/03/19 04:59:40;;;;;;;4.93;2.40;;;;;;;12.36;66.31;101092.56;5112357;28;20058;-63
2023/03/19 05:02:08;;;;;;;2.88;1.90;;;;;;;12.35;66.20;101099.00;5122571;28;20044;-64
2023/03/19 05:04:36;;;;;;;2.80;1.95;;;;;;;12.34;66.22;101102.75;5110872;28;20111;-64
2023/03/19 05:07:04;;;;;;;4.65;2.55;;;;;;;12.33;65.84;101101.94;5119374;28;20484;-63
2023/03/19 05:09:32;;;;;;;4.25;2.10;;;;;;;12.24;66.22;101089.81;5113859;28;20075;-65
2023/03/19 05:12:00;;;;;;;5.70;2.33;;;;;;;12.31;66.17;101104.03;5117524;27;20067;-63
2023/03/19 05:14:27;;;;;;;3.38;2.03;;;;;;;12.30;65.93;101104.25;5111788;28;20062;-63
2023/03/19 05:16:57;;;;;;;3.55;2.17;;;;;;;12.28;66.30;101098.28;5116078;28;20043;-63
2023/03/19 05:19:25;;;;;;;4.60;2.40;;;;;;;12.28;66.17;101109.06;5119508;28;20376;-63
2023/03/19 05:21:53;;;;;;;4.68;2.00;;;;;;;12.27;66.20;101104.72;5117577;28;20047;-63
2023/03/19 05:24:21;;;;;;;3.17;2.10;;;;;;;12.25;65.89;101104.94;5110934;28;20523;-64
2023/03/19 05:26:48;;;;;;;3.83;2.30;;;;;;;12.25;66.31;101109.50;5107772;28;20047;-63
2023/03/19 05:29:16;;;;;;;3.28;2.10;;;;;;;12.24;66.28;101107.84;5108690;28;20048;-64
2023/03/19 05:31:44;;;;;;;3.45;2.22;;;;;;;12.22;66.09;101107.25;5117755;28;20063;-64
2023/03/19 05:34:13;;;;;;;2.35;1.73;;;;;;;12.22;66.20;101116.16;5105243;28;20044;-63
2023/03/19 05:36:41;;;;;;;3.65;2.47;;;;;;;12.22;66.03;101109.97;5114731;27;20052;-65
2023/03/19 05:39:09;;;;;;;4.80;2.22;;;;;;;12.20;66.42;101112.88;5115196;28;20107;-63
2023/03/19 05:41:36;;;;;;;3.47;2.10;;;;;;;12.20;66.19;101114.75;5118905;28;20071;-63
2023/03/19 05:44:04;;;;;;;4.13;2.50;;;;;;;12.19;66.16;101115.78;5120036;28;20043;-63
2023/03/19 05:46:32;;;;;;;4.00;2.15;;;;;;;12.19;66.37;101121.19;5112667;28;20055;-63
2023/03/19 05:49:00;;;;;;;3.53;2.15;;;;;;;12.17;66.39;101118.72;5115531;28;20101;-63
2023/03/19 05:51:29;;;;;;;2.95;2.20;;;;;;;12.18;66.50;101124.94;5116969;28;20115;-63
2023/03/19 05:53:57;;;;;;;2.97;1.92;;;;;;;12.17;66.40;101129.50;5116369;28;20104;-64
2023/03/19 05:56:24;;;;;;;2.92;2.35;;;;;;;12.16;66.43;101127.84;4754698;28;10000406;-63
2023/03/19 05:58:52;;;;;;;3.78;2.35;;;;;;;12.17;66.74;101136.75;5116418;28;20051;-63
2023/03/19 06:01:20;;;;;;;3.40;2.47;;;;;;;12.15;66.39;101128.91;5115317;28;20067;-63
2023/03/19 06:03:48;;;;;;;2.63;1.67;;;;;;;12.15;66.71;101138.84;5105379;28;20058;-65
2023/03/19 06:06:16;;;;;;;4.68;2.15;;;;;;;12.16;66.61;101135.09;5105347;28;20056;-64
2023/03/19 06:08:45;;;;;;;3.70;2.50;;;;;;;12.15;66.75;101142.38;5113745;28;20212;-62
2023/03/19 06:11:13;;;;;;;3.90;2.40;;;;;;;12.13;66.28;101146.38;5108006;28;20142;-67
2023/03/19 06:13:42;;;;;;;4.93;2.50;;;;;;;12.14;66.77;101154.19;5110075;28;20052;-64
2023/03/19 06:16:10;;;;;;;4.05;2.17;;;;;;;12.15;66.67;101158.53;5115050;28;20051;-63
2023/03/19 06:18:38;;;;;;;5.68;2.55;;;;;;;12.15;66.42;101149.63;5114142;28;20057;-64
2023/03/19 06:21:06;;;;;;;4.75;2.50;;;;;;;12.15;66.51;101157.72;5105351;28;20075;-63
2023/03/19 06:23:33;;;;;;;4.70;2.40;;;;;;;12.14;66.65;101156.06;5110359;28;20043;-64
2023/03/19 06:26:03;;;;;;;3.78;2.42;;;;;;;12.14;66.88;101166.84;5105920;28;20055;-64
2023/03/19 06:28:31;;;;;;;5.70;2.40;;;;;;;12.12;66.72;101163.59;5114892;28;20053;-64
2023/03/19 06:30:59;;;;;;;3.45;2.55;;;;;;;12.10;66.64;101161.09;5117812;28;20052;-65
2023/03/19 06:33:30;;;;;;;4.55;2.60;;;;;;;12.11;66.89;101167.31;5111370;28;20048;-64
2023/03/19 06:35:59;;;;;;;4.57;2.50;;;;;;;12.11;66.67;101168.16;5118945;28;20044;-64
2023/03/19 06:38:27;;;;;;;6.30;2.22;;;;;;;12.10;66.69;101171.88;5115506;28;20073;-63
2023/03/19 06:40:55;;;;;;;4.90;2.75;;;;;;;12.10;66.99;101168.38;5112074;28;20066;-65
2023/03/19 06:43:24;;;;;;;3.45;2.40;;;;;;;12.09;66.74;101164.84;5114107;28;20152;-64
2023/03/19 06:45:52;;;;;;;4.53;2.75;;;;;;;12.09;66.54;101177.50;5113348;28;20036;-65
2023/03/19 06:48:20;;;;;;;7.18;3.30;;;;;;;12.07;66.95;101180.41;5113009;28;20074;-65
2023/03/19 06:50:48;;;;;;;3.53;2.47;;;;;;;12.04;66.74;101179.00;5118191;28;20103;-65
2023/03/19 06:53:15;;;;;;;4.90;3.10;;;;;;;12.06;66.78;101181.47;5114093;28;20048;-65
2023/03/19 06:55:45;;;;;;;3.30;2.65;;;;;;;12.05;66.83;101177.94;5114346;28;20558;-66
2023/03/19 06:58:13;;;;;;;4.18;2.92;;;;;;;12.04;66.88;101187.06;5114268;28;20111;-63
2023/03/19 07:00:42;;;;;;;5.72;3.08;;;;;;;12.05;66.59;101179.81;5116321;28;20082;-67
2023/03/19 07:03:11;;;;;;;5.13;2.88;;;;;;;12.04;67.32;101179.00;5121638;28;20058;-66
2023/03/19 07:05:39;;;;;;;4.15;2.67;;;;;;;12.07;66.78;101193.06;5111467;28;20047;-63
2023/03/19 07:08:10;;;;;;;4.13;2.70;;;;;;;12.07;67.18;101196.56;5122518;28;20202;-66
2023/03/19 07:10:38;;;;;;;3.63;2.90;;;;;;;12.07;66.94;101198.44;5121347;28;20488;-65
2023/03/19 07:13:06;;;;;;;4.80;3.03;;;;;;;12.08;67.14;101200.09;5119424;28;20543;-64
2023/03/19 07:15:35;;;;;;;3.50;2.42;;;;;;;12.09;67.26;101209.81;5119388;27;20094;-65
2023/03/19 07:18:04;;;;;;;3.50;2.40;;;;;;;12.08;67.23;101200.09;5127150;27;20117;-64
2023/03/19 07:20:32;;;;;;;3.88;2.75;;;;;;;12.07;67.23;101207.34;5114701;28;20069;-64
2023/03/19 07:23:00;;;;;;;4.18;2.90;;;;;;;12.08;67.06;101209.00;5119965;27;20206;-65
2023/03/19 07:25:28;;;;;;;4.47;2.50;;;;;;;12.06;66.81;101213.78;5117734;28;20048;-64
2023/03/19 07:27:56;;;;;;;6.07;3.20;;;;;;;12.06;67.06;101219.19;5112437;27;20058;-65
2023/03/19 07:30:24;;;;;;;5.25;3.63;;;;;;;12.06;67.16;101232.66;5114728;28;20055;-63
2023/03/19 07:32:52;;;;;;;4.78;3.10;;;;;;;12.04;67.05;101226.66;5118342;28;20051;-64
2023/03/19 07:35:21;;;;;;;4.50;3.00;;;;;;;12.05;67.25;101239.09;5116170;28;20582;-63
2023/03/19 07:37:49;;;;;;;4.78;3.40;;;;;;;12.03;67.21;101231.22;5122052;28;20119;-63
2023/03/19 07:40:17;;;;;;;5.90;3.22;;;;;;;12.05;67.23;101236.38;5118893;28;20047;-63
2023/03/19 07:42:45;;;;;;;5.88;3.25;;;;;;;12.05;67.18;101239.91;5106270;28;20078;-65
2023/03/19 07:45:13;;;;;;;4.00;2.97;;;;;;;12.04;66.91;101237.44;5111968;28;20147;-63
2023/03/19 07:47:41;;;;;;;3.90;2.95;;;;;;;12.04;67.16;101232.03;5113657;28;20079;-62
2023/03/19 07:50:10;;;;;;;5.32;3.33;;;;;;;12.04;66.83;101234.75;5117898;28;20083;-62
2023/03/19 07:52:39;;;;;;;5.22;3.17;;;;;;;12.04;67.23;101229.34;5118033;28;20198;-66
2023/03/19 07:55:07;;;;;;;4.37;2.87;;;;;;;12.04;66.85;101230.19;5121860;28;20085;-67
2023/03/19 07:57:35;;;;;;;4.82;3.47;;;;;;;12.05;66.91;101231.81;5118562;28;20268;-65
2023/03/19 08:00:04;;;;;;;3.97;3.08;;;;;;;12.07;67.03;101238.88;5108591;28;20067;-65
2023/03/19 08:02:31;;;;;;;7.10;3.13;;;;;;;12.08;66.91;101237.81;5115296;28;20158;-64
2023/03/19 08:05:00;;;;;;;5.15;2.95;;;;;;;12.09;66.89;101242.16;5116283;28;20444;-64
2023/03/19 08:07:28;;;;;;;4.88;3.50;;;;;;;12.10;66.98;101241.09;5120371;28;20052;-64
2023/03/19 08:09:57;;;;;;;5.45;3.50;;;;;;;12.12;67.45;101242.53;5116731;27;20067;-64
2023/03/19 08:12:25;;;;;;;5.28;2.90;;;;;;;12.12;66.90;101239.03;5111677;28;20043;-64
2023/03/19 08:14:53;;;;;;;5.75;3.35;;;;;;;12.13;67.17;101249.56;5111333;28;20044;-63
2023/03/19 08:17:21;;;;;;;11.57;3.28;;;;;;;12.12;67.33;101245.22;5112804;27;20047;-64
2023/03/19 08:19:49;;;;;;;6.80;4.15;;;;;;;12.11;67.14;101240.88;5120569;28;20079;-63
2023/03/19 08:22:17;;;;;;;8.50;4.05;;;;;;;12.12;67.65;101250.63;5116526;28;20161;-62
2023/03/19 08:24:44;;;;;;;7.43;3.65;;;;;;;12.14;67.43;101248.50;5118235;28;20099;-62
2023/03/19 08:27:13;;;;;;;5.40;3.38;;;;;;;12.15;67.41;101254.72;5114669;28;20044;-64
2023/03/19 08:29:41;;;;;;;14.23;4.40;;;;;;;12.15;67.42;101252.00;5110188;28;20058;-65
2023/03/19 08:32:10;;;;;;;10.75;4.25;;;;;;;12.15;67.26;101254.72;5120404;28;20124;-64
2023/03/19 08:34:37;;;;;;;12.50;4.05;;;;;;;12.15;67.68;101263.63;5120265;28;20051;-67
2023/03/19 08:37:05;;;;;;;13.13;4.20;;;;;;;12.14;67.21;101263.84;5120397;27;20583;-65
2023/03/19 08:39:33;;;;;;;11.57;2.83;;;;;;;12.15;67.52;101270.88;5119901;28;20047;-64
2023/03/19 08:42:01;;;;;;;11.77;3.65;;;;;;;12.16;67.24;101269.84;5118828;28;20111;-65
2023/03/19 08:44:30;;;;;;;10.38;3.05;;;;;;;12.16;66.99;101273.34;5112835;28;20097;-65
2023/03/19 08:46:58;;;;;;;10.70;3.95;;;;;;;12.16;67.29;101278.75;5117424;28;20619;-68
2023/03/19 08:49:25;;;;;;;9.18;3.65;;;;;;;12.18;67.08;101278.50;5107461;28;20044;-65
2023/03/19 08:51:53;;;;;;;11.57;4.10;;;;;;;12.16;67.10;101276.03;5109533;28;20051;-65
2023/03/19 08:54:21;;;;;;;13.82;3.90;;;;;;;12.17;66.92;101277.69;5116233;28;20108;-65
2023/03/19 08:56:49;;;;;;;10.82;3.80;;;;;;;12.18;67.21;101284.72;5115116;28;20115;-67
2023/03/19 08:59:17;;;;;;;11.75;3.30;;;;;;;12.19;66.74;101285.56;5119568;28;20289;-65
2023/03/19 09:01:50;;;;;;;10.98;3.95;;;;;;;12.17;66.93;101285.78;5120244;28;20051;-65
2023/03/19 09:04:18;;;;;;;12.05;3.95;;;;;;;12.18;67.13;101284.72;5120109;28;20070;-65
2023/03/19 09:06:49;;;;;;;10.93;3.08;;;;;;;12.18;66.75;101292.00;5113861;27;20090;-64
2023/03/19 09:09:18;;;;;;;13.20;4.15;;;;;;;12.18;66.84;101294.69;5116931;28;20384;-65
2023/03/19 09:11:46;;;;;;;12.18;3.85;;;;;;;12.18;67.06;101294.69;5109726;28;20308;-64
2023/03/19 09:14:15;;;;;;;9.15;3.45;;;;;;;12.17;67.33;101291.16;5113229;28;20043;-65
2023/03/19 09:16:43;;;;;;;11.30;4.35;;;;;;;12.18;67.21;101298.19;5109712;28;20052;-64
2023/03/19 09:19:12;;;;;;;11.77;4.07;;;;;;;12.19;67.45;101305.25;5117022;28;20218;-66
2023/03/19 09:21:41;;;;;;;9.07;3.38;;;;;;;12.18;67.29;101303.59;5107088;28;20048;-63
2023/03/19 09:24:09;;;;;;;12.85;4.03;;;;;;;12.22;67.31;101306.66;5109168;28;20047;-64
2023/03/19 09:26:37;;;;;;;11.57;3.28;;;;;;;12.22;67.58;101307.50;5112940;28;20115;-64
2023/03/19 09:29:04;;;;;;;15.30;4.88;;;;;;;12.25;67.35;101311.63;5108014;28;20110;-66
2023/03/19 09:31:32;;;;;;;11.07;4.55;;;;;;;12.27;67.01;101310.34;5111849;27;20079;-66
2023/03/19 09:34:00;;;;;;;11.48;4.00;;;;;;;12.30;67.35;101317.16;5118114;28;20047;-61
2023/03/19 09:36:29;;;;;;;11.23;4.63;;;;;;;12.31;67.31;101313.44;5105997;28;20076;-65
2023/03/19 09:38:57;;;;;;;12.52;4.15;;;;;;;12.32;67.51;101317.78;5120423;28;20057;-65
2023/03/19 09:41:34;;;;;;;12.88;4.07;;;;;;;12.34;67.25;101319.19;5112110;28;20083;-68
2023/03/19 09:44:05;;;;;;;12.90;4.40;;;;;;;12.34;67.52;101321.88;5112648;28;20119;-66
2023/03/19 09:46:40;;;;;;;11.88;3.67;;;;;;;12.36;67.49;101317.09;5108260;28;20031;-68
2023/03/19 09:49:17;;;;;;;12.90;4.60;;;;;;;12.36;67.15;101322.50;5110968;28;20044;-68
2023/03/19 09:51:50;;;;;;;12.43;3.42;;;;;;;12.37;67.39;101324.16;5118498;28;20351;-68
2023/03/19 09:54:26;;;;;;;11.85;4.22;;;;;;;12.39;67.36;101329.31;5117415;28;20197;-67
2023/03/19 09:56:55;;;;;;;10.57;3.63;;;;;;;12.40;67.16;101325.56;5121034;27;20054;-66
2023/03/19 09:59:24;;;;;;;16.88;3.90;;;;;;;12.45;67.49;101330.28;5119672;28;20347;-63
2023/03/19 10:01:59;;;;;;;14.82;4.68;;;;;;;12.46;67.62;101324.69;5117543;28;20394;-65
2023/03/19 10:04:41;;;;;;;14.32;4.82;;;;;;;12.43;67.53;101313.53;5119740;28;20051;-66
2023/03/19 10:07:23;;;;;;;15.35;4.75;;;;;;;12.51;67.29;101321.31;5113605;28;20047;-67
2023/03/19 10:10:10;;;;;;;16.55;5.40;;;;;;;12.56;67.24;101333.09;5119991;28;20051;-66
2023/03/19 10:12:49;;;;;;;12.73;4.72;;;;;;;12.60;67.47;101328.06;5115872;28;20063;-68
2023/03/19 10:15:21;;;;;;;15.38;5.10;;;;;;;12.62;67.55;101334.06;5112439;28;20051;-67
2023/03/19 10:18:10;;;;;;;14.90;4.47;;;;;;;12.68;68.38;101327.78;5113910;28;20079;-68
2023/03/19 10:20:49;;;;;;;16.88;4.68;;;;;;;12.67;67.58;101331.53;5116434;28;20047;-69
2023/03/19 10:23:35;;;;;;;14.07;4.30;;;;;;;12.66;67.31;101330.69;5119565;28;20081;-69
2023/03/19 10:26:04;;;;;;;16.27;4.63;;;;;;;12.67;67.11;101326.94;5113129;28;20126;-69
2023/03/19 10:28:32;;;;;;;11.55;3.78;;;;;;;12.66;66.69;101330.69;5120616;28;20044;-68
2023/03/19 10:31:12;;;;;;;8.98;3.25;;;;;;;12.69;66.90;101327.56;5118502;28;20036;-64
2023/03/19 10:33:44;;;;;;;11.63;3.63;;;;;;;12.71;66.36;101340.81;5117993;28;20496;-66
2023/03/19 10:36:13;;;;;;;13.55;3.20;;;;;;;12.75;66.43;101333.09;5119379;28;20040;-66
2023/03/19 10:38:44;;;;;;;17.35;3.88;;;;;;;12.80;66.50;101331.38;5124927;28;20040;-64
2023/03/19 10:41:24;;;;;;;11.38;3.10;;;;;;;12.86;66.36;101335.88;5125719;28;20055;-64
2023/03/19 10:43:55;;;;;;;18.15;4.03;;;;;;;12.87;66.68;101329.44;5116667;28;20072;-65
2023/03/19 10:46:23;;;;;;;21.05;3.88;;;;;;;12.88;66.70;101332.94;5117137;28;20453;-65
2023/03/19 10:48:51;;;;;;;9.18;2.92;;;;;;;12.88;66.44;101331.06;5115235;28;20060;-65
2023/03/19 10:51:24;;;;;;;10.68;2.40;;;;;;;12.92;66.17;101331.44;5126257;28;20079;-65
2023/03/19 10:53:55;;;;;;;10.32;2.50;;;;;;;12.93;65.93;101335.81;5117499;27;20411;-65
2023/03/19 10:56:26;;;;;;;11.00;2.30;;;;;;;12.95;65.72;101336.41;5118489;28;20105;-65
2023/03/19 10:58:59;;;;;;;9.75;2.33;;;;;;;13.02;66.91;101340.66;5125013;28;20163;-65
2023/03/19 11:01:31;;;;;;;8.38;2.55;;;;;;;13.11;68.24;101338.50;5121559;28;20052;-67
2023/03/19 11:04:01;;;;;;;7.70;2.30;;;;;;;13.12;66.91;101342.00;5121169;28;20055;-68
2023/03/19 11:06:33;;;;;;;10.40;2.80;;;;;;;13.14;66.79;101348.81;5117998;28;20412;-67
2023/03/19 11:09:15;;;;;;;6.65;2.47;;;;;;;13.21;67.13;101344.19;4410238;28;10001215;-67
2023/03/19 11:11:45;;;;;;;10.30;2.72;;;;;;;13.25;66.72;101344.56;5117071;28;20051;-66
2023/03/19 11:14:17;;;;;;;10.30;3.10;;;;;;;13.14;66.67;101332.63;5112645;28;20059;-67
2023/03/19 11:16:57;;;;;;;6.93;2.38;;;;;;;13.21;65.83;101338.81;5114509;28;20048;-66
2023/03/19 11:19:28;;;;;;;7.28;3.25;;;;;;;13.29;65.98;101349.28;5121754;27;20047;-66
2023/03/19 11:22:01;;;;;;;10.48;2.45;;;;;;;13.25;65.55;101352.66;5104319;28;20066;-65
2023/03/19 11:24:33;;;;;;;6.25;2.50;;;;;;;13.29;64.77;101349.28;5130136;27;20087;-66
2023/03/19 11:27:02;;;;;;;9.32;2.70;;;;;;;13.31;65.19;101354.47;5118214;27;20143;-66
2023/03/19 11:29:30;;;;;;;5.53;1.88;;;;;;;13.36;65.20;101349.22;5116095;28;20062;-67
2023/03/19 11:32:13;;;;;;;8.30;2.25;;;;;;;13.37;65.21;101350.03;5121538;28;20078;-68
2023/03/19 11:34:54;;;;;;;9.15;2.67;;;;;;;13.37;65.34;101348.16;5104831;28;20050;-66